Time;durP1;ratioP1;P1;durP2;ratioP2;P2;SDS_P1;SDS_P2;PMS_P1;PMS_P2;Temp;Humidity;BMP_temperature;BMP_pressure;BME280_temperature;BME280_humidity;BME280_pressure;Samples;Min_cycle;Max_cycle;Signal;HPM_P1;HPM_P2
2023/12/28 00:02:15;;;;;;;5.40;3.20;;;;;;;10.28;45.05;102798.33;107034;1267;22533;-53
2023/12/28 00:04:42;;;;;;;4.90;3.30;;;;;;;10.27;44.86;102808.21;106998;1260;25356;-53
2023/12/28 00:07:09;;;;;;;4.00;3.20;;;;;;;10.26;44.71;102818.42;107152;1257;25584;-53
2023/12/28 00:09:36;;;;;;;6.50;3.90;;;;;;;10.23;44.35;102822.39;106898;1257;247501;-53
2023/12/28 00:12:04;;;;;;;5.80;4.20;;;;;;;10.20;43.84;102827.55;106822;1271;25341;-52
2023/12/28 00:14:31;;;;;;;6.20;5.00;;;;;;;10.17;43.44;102834.27;107147;1261;24209;-53
2023/12/28 00:16:58;;;;;;;6.20;4.30;;;;;;;10.11;43.09;102841.81;107042;1257;25408;-53
2023/12/28 00:19:26;;;;;;;6.90;4.40;;;;;;;10.09;42.73;102848.00;106993;1253;25374;-52
2023/12/28 00:21:53;;;;;;;4.70;3.60;;;;;;;10.04;42.46;102852.27;106767;1257;25477;-52
2023/12/28 00:24:21;;;;;;;4.80;3.50;;;;;;;9.96;42.16;102854.77;106299;1256;1003416;-53
2023/12/28 00:26:48;;;;;;;4.50;3.20;;;;;;;9.90;42.01;102858.14;107009;1255;25443;-53
2023/12/28 00:29:15;;;;;;;4.30;3.30;;;;;;;9.82;41.89;102860.64;107080;1253;25450;-53
2023/12/28 00:31:42;;;;;;;4.40;3.20;;;;;;;9.75;41.93;102863.13;106821;1254;25495;-53
2023/12/28 00:34:09;;;;;;;4.80;3.00;;;;;;;9.69;42.03;102866.48;106381;1252;1003500;-52
2023/12/28 00:36:36;;;;;;;7.10;2.80;;;;;;;9.62;42.07;102867.94;106871;1265;25315;-52
2023/12/28 00:39:03;;;;;;;4.00;2.70;;;;;;;9.55;42.05;102873.89;107089;1257;25479;-52
2023/12/28 00:41:30;;;;;;;5.00;2.60;;;;;;;9.48;42.09;102878.63;107072;1263;23289;-52
2023/12/28 00:43:57;;;;;;;3.70;2.50;;;;;;;9.42;42.26;102883.05;107071;1257;25332;-52
2023/12/28 00:46:24;;;;;;;4.30;2.50;;;;;;;9.37;42.44;102876.38;107090;1257;25418;-52
2023/12/28 00:48:51;;;;;;;4.20;2.70;;;;;;;9.33;42.70;102871.09;107090;1256;25360;-52
2023/12/28 00:51:20;;;;;;;2.90;2.70;;;;;;;9.30;42.94;102872.27;107061;1257;25450;-52
2023/12/28 00:53:48;;;;;;;3.80;2.70;;;;;;;9.28;43.18;102869.28;106858;1259;25418;-54
2023/12/28 00:56:16;;;;;;;3.30;2.30;;;;;;;9.25;43.29;102865.94;107167;1257;25268;-54
2023/12/28 00:58:43;;;;;;;4.00;2.70;;;;;;;9.24;43.15;102860.90;106258;1256;1003595;-53
2023/12/28 01:01:10;;;;;;;3.40;2.40;;;;;;;9.22;42.96;102855.32;107075;1257;25401;-53
2023/12/28 01:03:39;;;;;;;2.40;2.10;;;;;;;9.20;42.90;102851.14;106880;1257;22530;-54
2023/12/28 01:06:07;;;;;;;3.30;2.60;;;;;;;9.20;42.79;102854.42;107058;1253;25385;-54
2023/12/28 01:08:34;;;;;;;4.70;2.90;;;;;;;9.18;42.64;102855.08;107092;1253;24214;-53
2023/12/28 01:11:02;;;;;;;3.40;2.80;;;;;;;9.17;42.62;102864.42;106233;1257;1003245;-54
2023/12/28 01:13:30;;;;;;;4.60;3.20;;;;;;;9.14;42.41;102871.98;106871;1261;25397;-54
2023/12/28 01:15:57;;;;;;;3.60;3.10;;;;;;;9.10;42.42;102880.21;107162;1252;25419;-53
2023/12/28 01:18:24;;;;;;;4.30;3.30;;;;;;;9.05;42.34;102889.65;107051;1252;25360;-52
2023/12/28 01:20:52;;;;;;;4.80;3.10;;;;;;;8.99;42.42;102892.65;106838;1259;25361;-54
2023/12/28 01:23:19;;;;;;;5.20;3.50;;;;;;;8.93;42.53;102887.86;106832;1271;25342;-54
2023/12/28 01:25:46;;;;;;;5.40;3.10;;;;;;;8.88;42.50;102886.21;106838;1254;25405;-52
2023/12/28 01:28:13;;;;;;;4.70;3.00;;;;;;;8.84;42.85;102887.85;107025;1256;25380;-52
2023/12/28 01:30:43;;;;;;;6.00;3.50;;;;;;;8.80;42.86;102887.09;107144;1256;22523;-52
2023/12/28 01:33:11;;;;;;;4.60;3.20;;;;;;;8.78;42.85;102885.84;107062;1264;25476;-52
2023/12/28 01:35:38;;;;;;;5.10;2.80;;;;;;;8.77;42.97;102886.34;106781;1259;25383;-51
2023/12/28 01:38:05;;;;;;;5.30;2.70;;;;;;;8.76;42.93;102887.18;106843;1254;25334;-54
2023/12/28 01:40:32;;;;;;;4.30;2.70;;;;;;;8.75;43.04;102885.60;106770;1260;25331;-51
2023/12/28 01:42:59;;;;;;;5.40;3.10;;;;;;;8.74;42.86;102883.86;106590;1262;25345;-54
2023/12/28 01:45:26;;;;;;;4.00;3.10;;;;;;;8.75;42.96;102886.64;106791;1266;25328;-54
2023/12/28 01:47:53;;;;;;;5.60;3.40;;;;;;;8.75;42.94;102891.15;106470;1251;1003004;-54
2023/12/28 01:50:20;;;;;;;4.50;3.20;;;;;;;8.74;42.95;102891.64;107050;1252;22526;-53
2023/12/28 01:52:47;;;;;;;4.50;3.10;;;;;;;8.73;42.73;102893.36;106284;1257;1002881;-54
2023/12/28 01:55:15;;;;;;;4.80;3.10;;;;;;;8.72;42.83;102891.08;106869;1255;25405;-53
2023/12/28 01:57:41;;;;;;;4.90;3.30;;;;;;;8.69;43.05;102889.66;107144;1256;25411;-53
2023/12/28 02:00:09;;;;;;;4.30;2.90;;;;;;;8.67;42.95;102889.09;107053;1257;25348;-53
2023/12/28 02:02:41;;;;;;;3.90;2.60;;;;;;;8.68;43.13;102883.58;106163;1251;1002981;-54
2023/12/28 02:05:12;;;;;;;4.30;2.50;;;;;;;8.65;43.22;102884.89;107105;1259;22526;-53
2023/12/28 02:07:39;;;;;;;4.30;2.80;;;;;;;8.65;43.36;102880.74;107074;1251;22539;-53
2023/12/28 02:10:07;;;;;;;3.80;2.70;;;;;;;8.65;43.39;102879.71;106861;1257;25379;-53
2023/12/28 02:12:35;;;;;;;3.60;2.40;;;;;;;8.66;43.36;102889.41;106861;1259;25369;-53
2023/12/28 02:15:02;;;;;;;2.90;2.10;;;;;;;8.68;43.21;102894.12;106038;1260;1002966;-53
2023/12/28 02:17:54;;;;;;;3.00;2.60;;;;;;;8.69;43.28;102892.59;107229;1252;25440;-54
2023/12/28 02:20:22;;;;;;;4.60;2.70;;;;;;;8.73;43.09;102895.09;107032;1259;22526;-53
2023/12/28 02:22:49;;;;;;;3.60;2.60;;;;;;;8.70;42.99;102892.60;106918;1260;25351;-54
2023/12/28 02:25:15;;;;;;;4.30;2.80;;;;;;;8.68;42.88;102888.92;106611;1258;24402;-52
2023/12/28 02:27:43;;;;;;;4.10;2.60;;;;;;;8.66;42.94;102892.00;106731;1258;25455;-52
2023/12/28 02:30:11;;;;;;;3.60;2.50;;;;;;;8.64;42.80;102893.70;105912;1260;1003019;-52
2023/12/28 02:32:49;;;;;;;3.30;2.50;;;;;;;8.60;42.96;102896.90;106669;1260;25522;-52
2023/12/28 02:35:32;;;;;;;4.70;2.50;;;;;;;8.58;42.87;102894.26;106664;1259;25377;-52
2023/12/28 02:38:03;;;;;;;6.10;2.40;;;;;;;8.56;42.85;102890.92;105931;1260;1003601;-52
2023/12/28 02:40:30;;;;;;;5.70;2.60;;;;;;;8.53;42.97;102889.66;105678;1265;1003130;-52
2023/12/28 02:42:57;;;;;;;3.60;2.40;;;;;;;8.50;43.11;102889.09;105661;1261;1003451;-52
2023/12/28 02:45:25;;;;;;;5.60;2.40;;;;;;;8.50;42.96;102894.80;106377;1263;25333;-52
2023/12/28 02:47:52;;;;;;;5.50;2.50;;;;;;;8.50;43.02;102902.92;106318;1264;24197;-52
2023/12/28 02:50:19;;;;;;;4.00;2.90;;;;;;;8.50;43.12;102906.38;105501;1264;1003676;-52
2023/12/28 02:52:46;;;;;;;3.30;2.40;;;;;;;8.49;43.11;102907.56;106331;1264;25386;-52
2023/12/28 02:55:14;;;;;;;4.50;3.10;;;;;;;8.46;43.11;102908.88;106343;1260;22598;-52
2023/12/28 02:57:43;;;;;;;4.00;2.70;;;;;;;8.45;43.06;102908.02;106644;1263;23019;-52
2023/12/28 03:00:11;;;;;;;4.10;2.80;;;;;;;8.44;43.04;102911.08;105996;1258;1003173;-52
2023/12/28 03:02:38;;;;;;;3.80;2.60;;;;;;;8.42;43.06;102907.26;106725;1258;22875;-52
2023/12/28 03:05:06;;;;;;;3.90;2.50;;;;;;;8.42;43.02;102905.85;106741;1261;25335;-52
2023/12/28 03:07:35;;;;;;;3.80;2.50;;;;;;;8.40;42.94;102906.68;106807;1258;24204;-52
2023/12/28 03:10:02;;;;;;;3.80;2.80;;;;;;;8.36;42.99;102905.22;106716;1255;22551;-52
2023/12/28 03:12:30;;;;;;;3.40;2.20;;;;;;;8.33;43.08;102900.14;106973;1258;22533;-52
2023/12/28 03:14:57;;;;;;;5.50;2.70;;;;;;;8.30;43.11;102901.46;106017;1258;1003325;-52
2023/12/28 03:17:24;;;;;;;3.40;2.60;;;;;;;8.29;43.34;102901.08;106786;1259;25345;-52
2023/12/28 03:19:51;;;;;;;3.30;2.20;;;;;;;8.29;43.57;102896.92;106906;1261;25366;-52
2023/12/28 03:22:18;;;;;;;2.90;2.20;;;;;;;8.30;43.51;102893.66;106302;1252;1003414;-52
2023/12/28 03:24:46;;;;;;;2.90;1.90;;;;;;;8.31;43.33;102897.82;106872;1259;25373;-52
2023/12/28 03:27:14;;;;;;;8.20;2.40;;;;;;;8.33;43.57;102895.28;106897;1272;25485;-52
2023/12/28 03:29:44;;;;;;;4.80;2.40;;;;;;;8.36;43.63;102898.63;107106;1256;25367;-52
2023/12/28 03:32:11;;;;;;;4.70;2.20;;;;;;;8.39;43.39;102899.05;107150;1257;25392;-53
2023/12/28 03:34:39;;;;;;;4.60;2.40;;;;;;;8.40;43.45;102898.23;107097;1255;25328;-52
2023/12/28 03:37:06;;;;;;;2.80;1.90;;;;;;;8.41;43.34;102894.45;107107;1252;25558;-53
2023/12/28 03:39:34;;;;;;;2.80;2.10;;;;;;;8.41;43.33;102893.75;106418;1261;1002908;-52
2023/12/28 03:42:01;;;;;;;2.70;1.80;;;;;;;8.41;43.54;102888.21;106290;1256;1003038;-52
2023/12/28 03:44:28;;;;;;;5.90;2.30;;;;;;;8.39;43.42;102887.30;106831;1260;25369;-52
2023/12/28 03:46:56;;;;;;;3.20;2.30;;;;;;;8.37;43.30;102881.02;106790;1258;25370;-52
2023/12/28 03:49:23;;;;;;;3.20;2.00;;;;;;;8.35;43.24;102876.64;107088;1252;22546;-52
2023/12/28 03:51:50;;;;;;;7.40;2.10;;;;;;;8.33;43.28;102886.29;106692;1273;25361;-52
2023/12/28 03:54:18;;;;;;;2.90;2.20;;;;;;;8.32;43.39;102878.15;106377;1258;1003687;-52
2023/12/28 03:56:46;;;;;;;3.30;2.20;;;;;;;8.31;43.37;102874.66;106492;1262;24288;-52
2023/12/28 03:59:15;;;;;;;2.80;1.90;;;;;;;8.30;43.14;102873.44;106863;1265;25217;-52
2023/12/28 04:01:42;;;;;;;2.80;2.10;;;;;;;8.30;43.30;102872.41;107016;1263;25416;-52
2023/12/28 04:04:10;;;;;;;4.10;1.90;;;;;;;8.31;43.05;102877.77;106252;1258;1003635;-52
2023/12/28 04:06:38;;;;;;;3.40;2.20;;;;;;;8.30;42.95;102882.77;106721;1259;24224;-52
2023/12/28 04:09:05;;;;;;;2.50;1.90;;;;;;;8.29;43.16;102878.42;106375;1257;1003155;-52
2023/12/28 04:11:32;;;;;;;3.20;2.20;;;;;;;8.27;42.92;102874.39;107136;1256;25360;-52
2023/12/28 04:13:59;;;;;;;3.70;2.30;;;;;;;8.24;42.94;102873.98;106328;1256;1003532;-52
2023/12/28 04:16:26;;;;;;;2.70;1.90;;;;;;;8.21;42.99;102876.50;107070;1256;25557;-52
2023/12/28 04:18:54;;;;;;;4.70;2.00;;;;;;;8.18;43.03;102874.88;106325;1263;1003370;-52
2023/12/28 04:21:21;;;;;;;4.00;2.50;;;;;;;8.14;43.13;102870.66;107130;1264;25367;-52
2023/12/28 04:23:48;;;;;;;3.20;2.20;;;;;;;8.12;43.18;102865.23;106755;1276;25477;-52
2023/12/28 04:26:19;;;;;;;3.00;1.80;;;;;;;8.10;43.18;102861.90;106981;1256;25338;-52
2023/12/28 04:28:46;;;;;;;4.50;2.50;;;;;;;8.09;43.18;102861.39;107010;1255;22521;-51
2023/12/28 04:31:13;;;;;;;3.80;2.40;;;;;;;8.08;43.40;102858.07;106145;1257;1002993;-52
2023/12/28 04:33:41;;;;;;;3.60;2.30;;;;;;;8.08;43.48;102864.45;106790;1260;25495;-52
2023/12/28 04:36:08;;;;;;;4.60;2.30;;;;;;;8.10;43.32;102872.96;107076;1257;25392;-52
2023/12/28 04:38:35;;;;;;;2.50;2.00;;;;;;;8.11;43.19;102876.48;106928;1257;25406;-52
2023/12/28 04:41:03;;;;;;;5.50;2.50;;;;;;;8.14;43.10;102883.27;107145;1257;25446;-52
2023/12/28 04:43:30;;;;;;;2.90;2.10;;;;;;;8.15;43.04;102888.14;106915;1255;22553;-52
2023/12/28 04:45:57;;;;;;;4.30;3.00;;;;;;;8.16;42.95;102891.26;106066;1260;1002803;-52
2023/12/28 04:48:25;;;;;;;3.50;2.40;;;;;;;8.15;42.95;102893.67;106138;1267;1003057;-51
2023/12/28 04:50:53;;;;;;;9.60;2.30;;;;;;;8.14;43.06;102902.10;106304;1253;1003600;-52
2023/12/28 04:53:20;;;;;;;2.70;2.20;;;;;;;8.13;43.07;102905.19;106832;1267;25354;-52
2023/12/28 04:55:47;;;;;;;3.40;2.40;;;;;;;8.11;42.97;102906.88;107193;1254;25387;-52
2023/12/28 04:58:14;;;;;;;2.70;2.00;;;;;;;8.11;42.96;102906.52;106256;1263;1003579;-52
2023/12/28 05:00:42;;;;;;;2.90;2.30;;;;;;;8.09;43.00;102897.69;106840;1253;25389;-52
2023/12/28 05:03:09;;;;;;;3.30;2.50;;;;;;;8.08;43.01;102909.58;107004;1256;25356;-52
2023/12/28 05:05:37;;;;;;;3.50;2.00;;;;;;;8.07;42.92;102911.13;107094;1258;25363;-52
2023/12/28 05:08:04;;;;;;;3.90;2.30;;;;;;;8.08;42.91;102910.44;106771;1258;24359;-52
2023/12/28 05:10:31;;;;;;;3.60;2.40;;;;;;;8.08;42.96;102903.70;106763;1261;25453;-52
2023/12/28 05:12:58;;;;;;;4.00;2.70;;;;;;;8.10;43.02;102903.41;107131;1258;25406;-52
2023/12/28 05:15:29;;;;;;;6.20;4.10;;;;;;;8.10;42.78;102888.55;107100;1252;25370;-52
2023/12/28 05:17:56;;;;;;;19.90;16.60;;;;;;;8.12;42.90;102869.92;106898;1259;25498;-52
2023/12/28 05:20:24;;;;;;;18.90;13.60;;;;;;;8.12;42.81;102865.23;107198;1252;25342;-52
2023/12/28 05:22:51;;;;;;;10.20;8.90;;;;;;;8.11;42.64;102868.16;107107;1257;25606;-52
2023/12/28 05:25:18;;;;;;;8.40;7.20;;;;;;;8.10;42.77;102864.34;106371;1263;1002993;-52
2023/12/28 05:27:45;;;;;;;9.80;8.60;;;;;;;8.09;42.86;102861.70;107145;1252;25345;-52
2023/12/28 05:30:13;;;;;;;8.60;7.70;;;;;;;8.06;42.84;102849.39;107126;1253;25408;-52
2023/12/28 05:32:40;;;;;;;7.20;5.10;;;;;;;8.05;42.93;102844.17;107218;1256;25338;-52
2023/12/28 05:35:08;;;;;;;6.60;5.10;;;;;;;8.04;42.87;102848.65;106344;1264;1003775;-52
2023/12/28 05:37:35;;;;;;;6.60;5.00;;;;;;;8.01;42.89;102850.66;106786;1258;22526;-52
2023/12/28 05:40:02;;;;;;;5.20;3.80;;;;;;;8.00;43.12;102854.42;106958;1259;25487;-52
2023/12/28 05:42:29;;;;;;;4.80;3.30;;;;;;;8.01;42.99;102856.88;106861;1272;24486;-52
2023/12/28 05:44:56;;;;;;;4.40;3.20;;;;;;;8.01;43.06;102854.83;106895;1257;22535;-52
2023/12/28 05:47:23;;;;;;;3.80;3.40;;;;;;;8.03;43.11;102861.95;106853;1268;25369;-52
2023/12/28 05:49:51;;;;;;;5.30;3.40;;;;;;;8.05;43.06;102868.91;106782;1257;25513;-52
2023/12/28 05:52:19;;;;;;;5.80;3.80;;;;;;;8.07;42.98;102869.80;106845;1257;25217;-52
2023/12/28 05:54:47;;;;;;;5.00;3.40;;;;;;;8.09;42.93;102878.67;106876;1257;22527;-52
2023/12/28 05:57:15;;;;;;;4.20;2.70;;;;;;;8.11;42.88;102881.30;106742;1257;25533;-52
2023/12/28 05:59:42;;;;;;;3.90;2.60;;;;;;;8.12;42.81;102881.65;106915;1261;25536;-52
2023/12/28 06:02:09;;;;;;;4.70;2.90;;;;;;;8.12;42.93;102887.20;106710;1259;25365;-52
2023/12/28 06:04:36;;;;;;;3.70;2.80;;;;;;;8.12;43.11;102892.39;106777;1261;25477;-52
2023/12/28 06:07:04;;;;;;;5.90;2.90;;;;;;;8.13;42.95;102893.78;106794;1260;25369;-52
2023/12/28 06:09:31;;;;;;;3.30;2.50;;;;;;;8.14;42.95;102893.98;106700;1259;22523;-53
2023/12/28 06:11:59;;;;;;;5.90;2.50;;;;;;;8.14;42.99;102895.73;106058;1258;1004205;-52
2023/12/28 06:14:26;;;;;;;3.10;2.10;;;;;;;8.17;42.89;102898.20;106837;1268;25491;-52
2023/12/28 06:16:52;;;;;;;4.70;2.70;;;;;;;8.19;43.03;102898.27;107026;1261;25359;-53
2023/12/28 06:19:20;;;;;;;4.10;2.50;;;;;;;8.25;43.15;102893.89;107164;1259;25485;-52
2023/12/28 06:21:49;;;;;;;3.30;2.30;;;;;;;8.32;42.95;102902.70;107119;1256;25334;-52
2023/12/28 06:24:17;;;;;;;3.70;3.00;;;;;;;8.40;42.84;102909.98;107150;1256;25360;-52
2023/12/28 06:26:44;;;;;;;2.50;2.20;;;;;;;8.48;42.81;102909.63;107123;1259;25416;-52
2023/12/28 06:29:11;;;;;;;3.60;2.60;;;;;;;8.55;42.82;102902.50;107060;1261;25341;-52
2023/12/28 06:31:38;;;;;;;4.00;2.30;;;;;;;8.60;42.61;102884.78;107010;1256;25373;-52
2023/12/28 06:34:06;;;;;;;4.60;2.60;;;;;;;8.65;42.44;102877.09;107029;1259;25336;-52
2023/12/28 06:36:34;;;;;;;3.70;2.60;;;;;;;8.68;42.32;102874.56;107131;1256;25409;-52
2023/12/28 06:39:01;;;;;;;4.00;2.90;;;;;;;8.70;42.29;102879.30;107091;1256;25318;-52
2023/12/28 06:41:28;;;;;;;5.20;2.90;;;;;;;8.74;42.33;102884.72;106948;1271;25359;-52
2023/12/28 06:43:55;;;;;;;6.00;3.10;;;;;;;8.75;42.21;102884.41;106351;1256;1003779;-52
2023/12/28 06:46:22;;;;;;;5.20;2.90;;;;;;;8.78;42.38;102891.38;106348;1256;1003672;-52
2023/12/28 06:48:49;;;;;;;3.50;2.80;;;;;;;8.81;42.42;102894.20;106870;1262;25488;-52
2023/12/28 06:51:20;;;;;;;4.80;3.00;;;;;;;8.84;42.61;102888.04;107042;1254;25226;-52
2023/12/28 06:53:48;;;;;;;5.60;3.60;;;;;;;8.90;42.79;102884.52;106827;1261;25338;-52
2023/12/28 06:56:15;;;;;;;4.90;2.80;;;;;;;8.94;42.58;102887.71;107051;1258;25351;-52
2023/12/28 06:58:43;;;;;;;5.50;2.70;;;;;;;8.99;42.45;102886.08;107183;1256;25363;-52
2023/12/28 07:01:11;;;;;;;3.90;2.60;;;;;;;9.06;42.36;102895.02;107136;1255;25348;-52
2023/12/28 07:03:38;;;;;;;4.30;3.10;;;;;;;9.11;42.28;102904.14;107132;1256;25338;-54
2023/12/28 07:06:05;;;;;;;6.40;3.50;;;;;;;9.15;42.26;102906.80;106869;1265;25339;-53
2023/12/28 07:08:32;;;;;;;5.10;3.50;;;;;;;9.21;42.15;102897.05;107115;1255;25405;-51
2023/12/28 07:11:03;;;;;;;5.60;4.10;;;;;;;9.26;42.20;102894.89;107137;1269;23125;-54
2023/12/28 07:13:30;;;;;;;4.00;2.90;;;;;;;9.30;42.40;102893.23;106332;1259;1003704;-54
2023/12/28 07:15:57;;;;;;;3.70;2.30;;;;;;;9.34;42.30;102893.46;106855;1274;25409;-54
2023/12/28 07:18:27;;;;;;;4.60;2.60;;;;;;;9.36;42.31;102894.73;107065;1261;24262;-53
2023/12/28 07:20:55;;;;;;;3.70;2.30;;;;;;;9.39;42.11;102901.70;106880;1258;25346;-54
2023/12/28 07:23:22;;;;;;;3.90;2.20;;;;;;;9.42;42.13;102902.60;106083;1261;1003481;-53
2023/12/28 07:25:49;;;;;;;3.00;2.20;;;;;;;9.44;42.20;102898.14;107137;1253;25342;-54
2023/12/28 07:28:16;;;;;;;3.80;2.70;;;;;;;9.46;42.11;102901.48;106733;1274;25528;-54
2023/12/28 07:30:43;;;;;;;2.40;2.20;;;;;;;9.51;42.10;102893.91;107151;1269;25339;-54
2023/12/28 07:33:11;;;;;;;3.30;2.40;;;;;;;9.56;42.08;102891.23;107226;1259;25463;-54
2023/12/28 07:35:39;;;;;;;3.30;2.40;;;;;;;9.61;41.90;102888.20;106774;1261;25342;-54
2023/12/28 07:38:06;;;;;;;5.80;2.40;;;;;;;9.67;41.76;102887.26;106749;1272;25398;-54
2023/12/28 07:40:33;;;;;;;4.60;2.60;;;;;;;9.74;41.59;102886.15;107073;1256;25341;-53
2023/12/28 07:43:01;;;;;;;3.80;2.00;;;;;;;9.81;41.64;102891.64;106859;1271;25325;-54
2023/12/28 07:45:28;;;;;;;5.10;2.40;;;;;;;9.88;41.40;102888.10;106830;1267;25332;-54
2023/12/28 07:47:56;;;;;;;3.60;2.50;;;;;;;9.95;41.51;102887.85;106930;1267;25341;-54
2023/12/28 07:50:23;;;;;;;4.30;2.20;;;;;;;10.01;41.54;102894.88;107005;1265;25226;-55
2023/12/28 07:52:50;;;;;;;4.80;2.40;;;;;;;10.07;41.51;102895.15;107070;1269;22526;-54
2023/12/28 07:55:17;;;;;;;4.50;2.50;;;;;;;10.14;41.44;102894.06;106777;1271;24230;-54
2023/12/28 07:57:45;;;;;;;3.70;2.30;;;;;;;10.21;41.27;102893.28;107054;1259;25347;-53
2023/12/28 08:00:12;;;;;;;6.50;2.80;;;;;;;10.27;41.24;102898.58;106735;1261;25328;-54
2023/12/28 08:02:40;;;;;;;4.20;2.70;;;;;;;10.33;41.11;102896.05;106938;1258;22673;-54
2023/12/28 08:05:07;;;;;;;4.00;2.30;;;;;;;10.38;41.24;102897.34;107104;1258;25546;-54
2023/12/28 08:07:34;;;;;;;4.80;2.70;;;;;;;10.44;41.79;102903.66;107213;1256;22523;-54
2023/12/28 08:10:01;;;;;;;6.20;3.40;;;;;;;10.52;41.96;102895.61;107102;1257;25422;-53
2023/12/28 08:12:29;;;;;;;4.40;3.20;;;;;;;10.59;42.31;102891.70;107102;1257;25394;-53
2023/12/28 08:14:56;;;;;;;4.80;3.50;;;;;;;10.67;42.56;102897.89;106108;1261;1002918;-53
2023/12/28 08:17:23;;;;;;;4.90;3.40;;;;;;;10.75;42.69;102900.94;107065;1257;25359;-53
2023/12/28 08:19:51;;;;;;;7.30;3.50;;;;;;;10.85;42.66;102893.91;107001;1260;25478;-53
2023/12/28 08:22:18;;;;;;;8.70;4.20;;;;;;;10.94;42.77;102897.50;106924;1274;25369;-52
2023/12/28 08:24:46;;;;;;;4.40;3.60;;;;;;;11.04;42.95;102898.83;106927;1258;25341;-52
2023/12/28 08:27:13;;;;;;;4.20;2.90;;;;;;;11.14;43.01;102893.71;106818;1262;25331;-52
2023/12/28 08:29:41;;;;;;;3.40;2.60;;;;;;;11.26;42.88;102891.05;106137;1269;1003934;-52
2023/12/28 08:32:10;;;;;;;3.30;2.00;;;;;;;11.35;42.73;102888.52;107183;1253;24357;-52
2023/12/28 08:34:37;;;;;;;3.40;2.50;;;;;;;11.44;42.50;102887.05;107161;1256;25456;-52
2023/12/28 08:37:05;;;;;;;2.90;2.10;;;;;;;11.53;42.34;102883.98;106345;1255;1003401;-53
2023/12/28 08:39:32;;;;;;;2.90;2.20;;;;;;;11.60;42.19;102872.23;106863;1259;25463;-52
2023/12/28 08:41:59;;;;;;;4.00;2.00;;;;;;;11.67;41.99;102869.15;107174;1269;25328;-52
2023/12/28 08:44:26;;;;;;;4.20;2.30;;;;;;;11.75;41.76;102862.45;106576;1265;1003355;-52
2023/12/28 08:46:53;;;;;;;2.40;1.70;;;;;;;11.81;41.58;102860.58;106453;1255;1003240;-53
2023/12/28 08:49:23;;;;;;;2.90;1.50;;;;;;;11.83;41.23;102862.34;106861;1253;22760;-53
2023/12/28 08:51:51;;;;;;;3.50;2.20;;;;;;;11.85;41.03;102858.17;106885;1255;25447;-52
2023/12/28 08:54:18;;;;;;;4.50;1.80;;;;;;;11.87;40.91;102851.59;106885;1256;24243;-53
2023/12/28 08:56:46;;;;;;;5.20;2.40;;;;;;;11.87;41.02;102847.75;107036;1257;25346;-53
2023/12/28 08:59:18;;;;;;;4.40;2.80;;;;;;;11.88;41.10;102845.15;106830;1253;25339;-53
2023/12/28 09:01:45;;;;;;;5.10;3.10;;;;;;;11.88;41.12;102839.06;106987;1270;22598;-53
2023/12/28 09:04:13;;;;;;;3.70;2.80;;;;;;;11.90;41.26;102840.12;107199;1256;25357;-55
2023/12/28 09:06:41;;;;;;;4.80;3.20;;;;;;;11.91;41.37;102838.04;107113;1255;24215;-53
2023/12/28 09:09:09;;;;;;;6.50;3.40;;;;;;;11.93;41.59;102839.09;107081;1260;23369;-53
2023/12/28 09:11:36;;;;;;;4.80;3.10;;;;;;;11.96;41.83;102827.45;107147;1273;22593;-54
2023/12/28 09:14:03;;;;;;;4.70;3.10;;;;;;;12.01;42.07;102819.30;107012;1257;23245;-53
2023/12/28 09:16:30;;;;;;;6.70;2.90;;;;;;;12.07;42.27;102815.87;106965;1259;25345;-53
2023/12/28 09:18:57;;;;;;;2.70;2.40;;;;;;;12.15;42.54;102811.71;107009;1259;25370;-52
2023/12/28 09:21:26;;;;;;;3.80;2.40;;;;;;;12.22;42.73;102808.09;107449;1267;23324;-54
2023/12/28 09:23:53;;;;;;;4.60;2.60;;;;;;;12.31;42.77;102805.00;107198;1269;25525;-53
2023/12/28 09:26:20;;;;;;;4.90;2.70;;;;;;;12.40;42.76;102807.11;107086;1256;25341;-54
2023/12/28 09:28:47;;;;;;;4.00;2.80;;;;;;;12.47;42.97;102800.52;106630;1261;25411;-52
2023/12/28 09:31:14;;;;;;;4.40;2.40;;;;;;;12.54;43.19;102797.23;106789;1266;24250;-53
2023/12/28 09:33:41;;;;;;;4.70;2.50;;;;;;;12.61;43.37;102796.38;106992;1260;25387;-53
2023/12/28 09:36:12;;;;;;;3.70;2.50;;;;;;;12.67;43.53;102789.61;106470;1258;25448;-53
2023/12/28 09:38:39;;;;;;;3.20;2.10;;;;;;;12.72;43.55;102786.48;106339;1256;1002969;-53
2023/12/28 09:41:16;;;;;;;3.70;2.30;;;;;;;12.76;43.75;102783.17;107225;1256;23453;-53
2023/12/28 09:44:11;;;;;;;5.90;2.30;;;;;;;12.77;43.89;102781.27;107108;1259;25318;-52
2023/12/28 09:46:42;;;;;;;4.10;2.40;;;;;;;12.78;44.11;102777.27;106922;1272;25357;-53
2023/12/28 09:49:10;;;;;;;3.10;1.80;;;;;;;12.79;44.27;102773.61;107206;1267;25408;-53
2023/12/28 09:51:40;;;;;;;3.60;1.90;;;;;;;12.80;44.31;102762.80;107037;1269;22633;-52
2023/12/28 09:54:07;;;;;;;2.10;1.70;;;;;;;12.83;44.59;102754.97;106821;1259;24221;-51
2023/12/28 09:56:35;;;;;;;2.30;1.50;;;;;;;12.90;44.95;102754.80;107047;1256;22758;-51
2023/12/28 09:59:02;;;;;;;1.90;1.60;;;;;;;12.98;44.45;102750.61;106931;1268;22629;-52
2023/12/28 10:01:29;;;;;;;2.10;1.30;;;;;;;13.08;43.94;102742.80;107035;1255;24225;-52
2023/12/28 10:03:56;;;;;;;1.30;0.90;;;;;;;13.17;44.14;102741.77;107125;1257;25328;-52
2023/12/28 10:06:23;;;;;;;2.40;1.20;;;;;;;13.26;44.20;102730.23;105955;1261;1003224;-51
2023/12/28 10:08:50;;;;;;;2.10;1.20;;;;;;;13.35;43.88;102730.05;106589;1272;25527;-51
2023/12/28 10:11:18;;;;;;;1.40;1.10;;;;;;;13.41;43.80;102723.07;106836;1271;25337;-52
2023/12/28 10:13:45;;;;;;;2.60;1.30;;;;;;;13.46;43.77;102718.52;107142;1256;25523;-52
2023/12/28 10:16:12;;;;;;;2.80;1.50;;;;;;;13.51;43.67;102715.55;107176;1271;25350;-52
2023/12/28 10:18:43;;;;;;;2.80;1.10;;;;;;;13.54;43.69;102716.08;107117;1258;25338;-52
2023/12/28 10:21:11;;;;;;;3.10;1.10;;;;;;;13.57;44.05;102712.21;107166;1269;25319;-52
2023/12/28 10:23:38;;;;;;;1.80;0.90;;;;;;;13.60;44.11;102703.48;107136;1256;25404;-52
2023/12/28 10:26:06;;;;;;;4.10;1.30;;;;;;;13.61;43.65;102694.95;106834;1275;22649;-52
2023/12/28 10:28:39;;;;;;;2.80;1.30;;;;;;;13.63;43.43;102694.77;107109;1267;22526;-53
2023/12/28 10:31:07;;;;;;;2.60;1.10;;;;;;;13.67;43.65;102694.39;106942;1272;26741;-52
2023/12/28 10:33:36;;;;;;;5.70;1.30;;;;;;;13.70;43.86;102690.38;106763;1269;25531;-52
2023/12/28 10:36:08;;;;;;;2.30;1.40;;;;;;;13.75;44.06;102686.67;106916;1256;25495;-52
2023/12/28 10:38:37;;;;;;;1.50;1.20;;;;;;;13.79;44.20;102693.83;106798;1267;25363;-52
2023/12/28 10:41:08;;;;;;;3.00;1.20;;;;;;;13.85;44.37;102687.52;106691;1269;25389;-52
2023/12/28 10:43:54;;;;;;;3.70;1.50;;;;;;;13.87;44.49;102687.84;107061;1267;22514;-52
2023/12/28 10:46:28;;;;;;;2.00;1.20;;;;;;;13.91;44.77;102675.63;106984;1272;22726;-52
2023/12/28 10:49:06;;;;;;;3.80;1.30;;;;;;;13.92;45.00;102673.00;106062;1267;1016058;-52
2023/12/28 10:51:34;;;;;;;2.90;1.10;;;;;;;13.93;44.97;102666.19;107049;1253;25581;-52
2023/12/28 10:54:01;;;;;;;3.20;1.10;;;;;;;13.95;44.82;102658.68;107191;1259;23184;-53
2023/12/28 10:56:43;;;;;;;1.50;1.30;;;;;;;13.98;44.56;102653.08;107035;1259;25339;-52
2023/12/28 10:59:32;;;;;;;2.40;1.20;;;;;;;14.02;43.87;102646.08;107190;1256;24263;-53
2023/12/28 11:01:59;;;;;;;3.70;1.30;;;;;;;14.05;43.81;102637.69;107246;1253;22679;-52
2023/12/28 11:04:44;;;;;;;2.20;1.10;;;;;;;14.05;44.14;102626.67;107265;1259;25351;-51
2023/12/28 11:07:13;;;;;;;3.20;1.30;;;;;;;14.07;44.17;102617.59;107406;1263;25504;-52
2023/12/28 11:10:00;;;;;;;2.40;1.10;;;;;;;14.06;44.13;102618.99;106999;1272;22590;-53
2023/12/28 11:12:31;;;;;;;1.70;1.00;;;;;;;14.04;43.92;102617.10;106988;1262;25498;-52
2023/12/28 11:14:58;;;;;;;3.20;1.20;;;;;;;14.02;43.72;102617.11;105969;1263;1002367;-53
2023/12/28 11:17:25;;;;;;;2.40;1.00;;;;;;;13.99;43.69;102612.94;106259;1278;24284;-53
2023/12/28 11:19:53;;;;;;;3.90;1.60;;;;;;;13.97;43.61;102607.71;106607;1262;25408;-52
2023/12/28 11:22:23;;;;;;;4.40;1.30;;;;;;;13.96;43.93;102604.05;106716;1262;23924;-53
2023/12/28 11:24:53;;;;;;;2.10;1.10;;;;;;;13.95;44.08;102605.63;106726;1272;22522;-53